createdAt,value
2023-04-16T00:02:03.694Z,31.03
2023-04-16T00:04:31.179Z,32.17
2023-04-16T00:06:58.217Z,32.57
2023-04-16T00:09:25.366Z,32.63
2023-04-16T00:11:52.282Z,33.70
2023-04-16T00:14:19.236Z,32.93
2023-04-16T00:16:46.735Z,32.83
2023-04-16T00:19:13.948Z,32.73
2023-04-16T00:21:40.844Z,34.33
2023-04-16T00:24:07.766Z,34.53
2023-04-16T00:26:37.764Z,33.60
2023-04-16T00:29:04.653Z,33.37
2023-04-16T00:31:33.621Z,33.37
2023-04-16T00:34:01.041Z,34.67
2023-04-16T00:36:28.220Z,32.90
2023-04-16T00:38:56.083Z,34.50
2023-04-16T00:41:23.272Z,34.00
2023-04-16T00:43:50.893Z,33.73
2023-04-16T00:46:19.872Z,35.27
2023-04-16T00:48:47.554Z,34.10
2023-04-16T00:51:14.981Z,34.63
2023-04-16T00:53:42.929Z,34.30
2023-04-16T00:56:10.673Z,34.27
2023-04-16T00:58:39.005Z,34.03
2023-04-16T01:01:06.461Z,35.93
2023-04-16T01:03:44.546Z,35.27
2023-04-16T01:06:12.225Z,33.93
2023-04-16T01:08:39.847Z,32.70
2023-04-16T01:11:07.084Z,32.87
2023-04-16T01:13:39.203Z,32.90
2023-04-16T01:16:08.171Z,33.53
2023-04-16T01:18:36.268Z,33.57
2023-04-16T01:21:04.222Z,33.37
2023-04-16T01:23:31.407Z,33.97
2023-04-16T01:25:58.425Z,32.43
2023-04-16T01:28:25.734Z,33.07
2023-04-16T01:30:52.791Z,33.97
2023-04-16T01:33:38.226Z,33.10
2023-04-16T01:36:07.046Z,33.80
2023-04-16T01:38:33.998Z,33.73
2023-04-16T01:41:01.949Z,34.33
2023-04-16T01:43:29.265Z,34.87
2023-04-16T01:46:15.810Z,35.07
2023-04-16T01:48:43.051Z,33.53
2023-04-16T01:51:10.229Z,34.47
2023-04-16T01:53:37.532Z,35.47
2023-04-16T01:56:04.843Z,36.00
2023-04-16T01:58:33.796Z,36.47
2023-04-16T02:01:00.986Z,36.43
2023-04-16T02:03:28.370Z,37.17
2023-04-16T02:05:55.658Z,35.43
2023-04-16T02:08:23.259Z,36.50
2023-04-16T02:10:50.922Z,36.23
2023-04-16T02:13:17.823Z,36.43
2023-04-16T02:15:48.433Z,36.13
2023-04-16T02:18:19.178Z,36.90
2023-04-16T02:20:49.526Z,35.93
2023-04-16T02:23:17.720Z,35.90
2023-04-16T02:25:47.333Z,35.83
2023-04-16T02:28:17.059Z,35.80
2023-04-16T02:30:46.018Z,37.30
2023-04-16T02:33:14.979Z,35.47
2023-04-16T02:35:52.088Z,36.83
2023-04-16T02:38:19.344Z,37.37
2023-04-16T02:40:46.415Z,36.37
2023-04-16T02:43:13.465Z,37.33
2023-04-16T02:45:40.446Z,37.60
2023-04-16T02:48:08.938Z,36.23
2023-04-16T02:50:35.889Z,35.27
2023-04-16T02:53:03.451Z,37.27
2023-04-16T02:55:30.497Z,36.40
2023-04-16T02:57:57.672Z,36.97
2023-04-16T03:00:24.612Z,34.43
2023-04-16T03:02:51.760Z,37.53
2023-04-16T03:05:19.001Z,35.93
2023-04-16T03:07:46.922Z,34.47
2023-04-16T03:10:15.497Z,35.30
2023-04-16T03:12:45.615Z,35.13
2023-04-16T03:15:12.667Z,35.80
2023-04-16T03:17:39.612Z,33.97
2023-04-16T03:20:07.372Z,34.07
2023-04-16T03:22:34.340Z,36.40
2023-04-16T03:25:01.292Z,36.80
2023-04-16T03:27:28.223Z,35.50
2023-04-16T03:29:55.600Z,36.83
2023-04-16T03:32:22.685Z,36.27
2023-04-16T03:34:49.626Z,36.57
2023-04-16T03:37:16.888Z,36.97
2023-04-16T03:39:44.378Z,37.17
2023-04-16T03:42:12.017Z,37.37
2023-04-16T03:44:38.901Z,36.30
2023-04-16T03:47:05.973Z,37.27
2023-04-16T03:49:32.952Z,37.33
2023-04-16T03:52:00.130Z,37.70
2023-04-16T03:54:26.990Z,36.70
2023-04-16T03:57:05.987Z,36.77
2023-04-16T03:59:33.479Z,38.10
2023-04-16T04:02:00.754Z,37.10
2023-04-16T04:04:27.893Z,38.33
2023-04-16T04:06:54.876Z,37.90
2023-04-16T04:09:22.767Z,39.20
2023-04-16T04:11:50.611Z,37.63
2023-04-16T04:14:17.668Z,37.23
2023-04-16T04:16:44.691Z,39.37
2023-04-16T04:19:11.873Z,39.33
2023-04-16T04:21:39.070Z,39.20
2023-04-16T04:24:06.250Z,39.00
2023-04-16T04:26:34.041Z,40.37
2023-04-16T04:29:01.008Z,41.27
2023-04-16T04:31:28.025Z,38.97
2023-04-16T04:33:56.083Z,37.57
2023-04-16T04:36:23.459Z,38.27
2023-04-16T04:38:50.488Z,37.63
2023-04-16T04:41:17.567Z,36.77
2023-04-16T04:43:44.522Z,36.37
2023-04-16T04:46:11.998Z,38.60
2023-04-16T04:48:40.535Z,36.07
2023-04-16T04:51:07.560Z,34.73
2023-04-16T04:53:34.799Z,37.17
2023-04-16T04:56:09.239Z,34.67
2023-04-16T04:58:40.212Z,35.37
2023-04-16T05:01:07.174Z,33.87
2023-04-16T05:03:34.349Z,34.83
2023-04-16T05:06:01.551Z,33.87
2023-04-16T05:08:28.534Z,32.80
2023-04-16T05:10:58.265Z,33.87
2023-04-16T05:13:25.235Z,33.97
2023-04-16T05:15:52.115Z,33.93
2023-04-16T05:18:18.975Z,34.87
2023-04-16T05:20:46.049Z,35.43
2023-04-16T05:23:12.953Z,35.00
2023-04-16T05:25:39.787Z,33.87
2023-04-16T05:28:06.715Z,33.00
2023-04-16T05:30:33.693Z,34.30
2023-04-16T05:33:00.781Z,32.27
2023-04-16T05:35:27.879Z,32.30
2023-04-16T05:37:54.886Z,32.17
2023-04-16T05:40:22.000Z,31.87
2023-04-16T05:42:49.381Z,32.77
2023-04-16T05:45:16.340Z,33.07
2023-04-16T05:47:43.444Z,31.57
2023-04-16T05:50:10.844Z,30.60
2023-04-16T05:52:38.233Z,30.60
2023-04-16T05:55:05.973Z,31.10
2023-04-16T05:57:33.923Z,31.63
2023-04-16T06:00:00.773Z,33.60
2023-04-16T06:02:27.880Z,31.33
2023-04-16T06:04:54.849Z,29.50
2023-04-16T06:07:21.719Z,30.17
2023-04-16T06:09:48.711Z,30.07
2023-04-16T06:12:15.653Z,30.40
2023-04-16T06:14:42.558Z,30.50
2023-04-16T06:17:09.490Z,30.13
2023-04-16T06:19:36.381Z,33.33
2023-04-16T06:22:04.612Z,31.83
2023-04-16T06:24:31.532Z,32.13
2023-04-16T06:26:58.432Z,31.23
2023-04-16T06:29:36.853Z,32.90
2023-04-16T06:32:08.321Z,32.63
2023-04-16T06:34:35.392Z,33.50
2023-04-16T06:37:02.322Z,33.33
2023-04-16T06:39:29.225Z,34.77
2023-04-16T06:41:56.524Z,33.83
2023-04-16T06:44:23.448Z,33.53
2023-04-16T06:46:51.128Z,33.90
2023-04-16T06:49:18.050Z,34.73
2023-04-16T06:51:45.368Z,34.77
2023-04-16T06:54:12.300Z,33.60
2023-04-16T06:56:39.244Z,35.90
2023-04-16T06:59:07.024Z,34.07
2023-04-16T07:01:34.405Z,35.03
2023-04-16T07:04:01.617Z,40.07
2023-04-16T07:06:28.725Z,36.10
2023-04-16T07:08:55.701Z,35.97
2023-04-16T07:11:22.748Z,36.47
2023-04-16T07:13:51.210Z,38.17
2023-04-16T07:16:18.607Z,38.43
2023-04-16T07:18:45.734Z,35.93
2023-04-16T07:21:12.684Z,37.00
2023-04-16T07:23:39.668Z,36.63
2023-04-16T07:26:06.682Z,38.20
2023-04-16T07:28:33.831Z,37.37
2023-04-16T07:31:00.840Z,37.70
2023-04-16T07:33:27.839Z,37.97
2023-04-16T07:35:54.928Z,37.30
2023-04-16T07:38:21.848Z,36.87
2023-04-16T07:40:48.899Z,36.13
2023-04-16T07:43:16.480Z,37.33
2023-04-16T07:45:43.469Z,34.13
2023-04-16T07:48:10.391Z,36.00
2023-04-16T07:50:37.523Z,35.30
2023-04-16T07:53:05.964Z,35.87
2023-04-16T07:55:32.877Z,34.23
2023-04-16T07:57:59.779Z,37.23
2023-04-16T08:00:26.822Z,33.87
2023-04-16T08:02:53.942Z,35.10
2023-04-16T08:05:21.098Z,35.03
2023-04-16T08:07:48.090Z,35.50
2023-04-16T08:10:15.049Z,34.73
2023-04-16T08:12:42.040Z,34.67
2023-04-16T08:15:09.343Z,33.53
2023-04-16T08:17:37.734Z,33.43
2023-04-16T08:20:06.420Z,32.67
2023-04-16T08:22:33.889Z,33.47
2023-04-16T08:25:01.026Z,33.43
2023-04-16T08:27:27.960Z,32.37
2023-04-16T08:29:54.902Z,30.80
2023-04-16T08:32:21.929Z,30.43
2023-04-16T08:34:49.010Z,32.03
2023-04-16T08:37:16.002Z,30.93
2023-04-16T08:39:43.030Z,30.20
2023-04-16T08:42:18.930Z,29.90
2023-04-16T08:44:49.842Z,29.73
2023-04-16T08:47:16.838Z,28.00
2023-04-16T08:49:46.112Z,28.87
2023-04-16T08:52:19.169Z,26.53
2023-04-16T08:55:04.153Z,25.67
2023-04-16T08:57:40.389Z,26.73
2023-04-16T09:00:09.119Z,26.70
2023-04-16T09:02:36.500Z,26.17
2023-04-16T09:05:06.546Z,27.60
2023-04-16T09:07:34.819Z,27.63
2023-04-16T09:10:02.073Z,28.07
2023-04-16T09:12:30.919Z,28.60
2023-04-16T09:15:01.524Z,25.83
2023-04-16T09:17:29.090Z,25.87
2023-04-16T09:19:56.129Z,26.60
2023-04-16T09:22:23.154Z,27.07
2023-04-16T09:24:50.404Z,25.43
2023-04-16T09:27:17.507Z,26.20
2023-04-16T09:29:44.552Z,24.67
2023-04-16T09:32:12.170Z,25.70
2023-04-16T09:35:08.893Z,26.57
2023-04-16T09:37:35.780Z,25.70
2023-04-16T09:40:04.072Z,25.53
2023-04-16T09:42:38.245Z,24.03
2023-04-16T09:45:06.233Z,22.25
2023-04-16T09:47:41.610Z,24.42
2023-04-16T09:50:12.451Z,22.42
2023-04-16T09:52:40.030Z,23.10
2023-04-16T09:55:07.284Z,23.40
2023-04-16T09:57:38.045Z,23.45
2023-04-16T10:00:10.209Z,23.00
2023-04-16T10:02:42.026Z,23.93
2023-04-16T10:05:09.748Z,22.52
2023-04-16T10:07:37.345Z,23.67
2023-04-16T10:10:05.298Z,22.30
2023-04-16T10:12:35.628Z,24.10
2023-04-16T10:15:02.669Z,23.52
2023-04-16T10:17:31.311Z,23.50
2023-04-16T10:20:00.125Z,22.33
2023-04-16T10:22:27.138Z,22.85
2023-04-16T10:24:55.699Z,22.05
2023-04-16T10:27:23.115Z,23.52
2023-04-16T10:29:50.738Z,21.27
2023-04-16T10:32:18.585Z,20.80
2023-04-16T10:34:45.936Z,20.85
2023-04-16T10:37:12.963Z,21.38
2023-04-16T10:39:40.091Z,20.88
2023-04-16T10:42:11.969Z,21.33
2023-04-16T10:44:42.567Z,20.15
2023-04-16T10:47:12.861Z,20.40
2023-04-16T10:49:40.683Z,21.52
2023-04-16T10:52:12.566Z,19.90
2023-04-16T10:54:40.956Z,21.95
2023-04-16T10:57:10.145Z,23.48
2023-04-16T10:59:39.587Z,22.25
2023-04-16T11:02:17.906Z,21.42
2023-04-16T11:04:49.840Z,21.20
2023-04-16T11:07:21.859Z,21.38
2023-04-16T11:09:54.585Z,20.17
2023-04-16T11:12:24.247Z,21.13
2023-04-16T11:14:53.838Z,19.73
2023-04-16T11:17:22.285Z,20.33
2023-04-16T11:19:50.878Z,20.63
2023-04-16T11:22:22.281Z,20.70
2023-04-16T11:24:55.474Z,19.65
2023-04-16T11:27:26.462Z,20.20
2023-04-16T11:30:01.231Z,19.25
2023-04-16T11:32:31.137Z,19.00
2023-04-16T11:34:59.855Z,20.08
2023-04-16T11:37:34.888Z,19.63
2023-04-16T11:40:04.932Z,19.52
2023-04-16T11:42:32.046Z,20.13
2023-04-16T11:45:03.094Z,21.33
2023-04-16T11:47:42.057Z,19.50
2023-04-16T11:50:23.819Z,19.88
2023-04-16T11:52:53.372Z,19.92
2023-04-16T11:55:20.852Z,18.88
2023-04-16T11:57:48.807Z,19.08
2023-04-16T12:00:16.545Z,18.40
2023-04-16T12:02:51.761Z,20.95
2023-04-16T12:05:34.604Z,19.65
2023-04-16T12:08:04.103Z,19.83
2023-04-16T12:10:34.903Z,20.30
2023-04-16T12:13:16.398Z,18.55
2023-04-16T12:15:51.221Z,17.65
2023-04-16T12:18:20.221Z,17.02
2023-04-16T12:20:47.584Z,16.70
2023-04-16T12:23:24.680Z,17.42
2023-04-16T12:25:52.152Z,16.45
2023-04-16T12:28:29.734Z,16.77
2023-04-16T12:30:57.135Z,16.10
2023-04-16T12:33:24.196Z,14.95
2023-04-16T12:35:51.251Z,16.25
2023-04-16T12:38:18.405Z,16.25
2023-04-16T12:40:45.736Z,16.17
2023-04-16T12:43:13.058Z,16.52
2023-04-16T12:45:40.715Z,16.25
2023-04-16T12:48:07.774Z,16.10
2023-04-16T12:50:35.046Z,16.80
2023-04-16T12:53:01.993Z,15.77
2023-04-16T12:55:28.874Z,15.40
2023-04-16T12:57:56.019Z,15.97
2023-04-16T13:00:23.154Z,16.10
2023-04-16T13:02:50.423Z,15.50
2023-04-16T13:05:19.398Z,15.13
2023-04-16T13:07:46.554Z,16.92
2023-04-16T13:10:13.862Z,14.80
2023-04-16T13:12:40.984Z,15.40
2023-04-16T13:15:08.582Z,15.60
2023-04-16T13:17:35.903Z,14.57
2023-04-16T13:20:03.138Z,14.43
2023-04-16T13:22:30.394Z,15.00
2023-04-16T13:24:57.441Z,15.73
2023-04-16T13:27:24.374Z,15.85
2023-04-16T13:29:51.277Z,15.30
2023-04-16T13:32:18.917Z,16.98
2023-04-16T13:34:46.001Z,16.52
2023-04-16T13:37:13.256Z,15.00
2023-04-16T13:39:40.222Z,15.05
2023-04-16T13:42:07.177Z,14.60
2023-04-16T13:44:34.132Z,13.35
2023-04-16T13:47:01.133Z,13.20
2023-04-16T13:49:28.287Z,14.00
2023-04-16T13:51:55.298Z,13.55
2023-04-16T13:54:22.224Z,13.75
2023-04-16T13:56:51.166Z,12.77
2023-04-16T13:59:18.705Z,13.40
2023-04-16T14:01:45.652Z,12.68
2023-04-16T14:04:12.742Z,11.77
2023-04-16T14:06:39.793Z,12.98
2023-04-16T14:09:06.901Z,11.85
2023-04-16T14:11:33.817Z,13.35
2023-04-16T14:14:00.908Z,12.18
2023-04-16T14:16:27.977Z,12.48
2023-04-16T14:18:55.023Z,13.57
2023-04-16T14:21:22.020Z,13.15
2023-04-16T14:23:49.450Z,11.98
2023-04-16T14:26:16.884Z,12.25
2023-04-16T14:28:44.094Z,16.13
2023-04-16T14:31:11.128Z,12.50
2023-04-16T14:33:38.061Z,13.52
2023-04-16T14:36:05.360Z,13.13
2023-04-16T14:38:32.560Z,12.65
2023-04-16T14:41:00.554Z,13.02
2023-04-16T14:43:27.675Z,13.35
2023-04-16T14:45:54.797Z,13.82
2023-04-16T14:48:22.150Z,13.03
2023-04-16T14:50:49.220Z,14.07
2023-04-16T14:53:16.288Z,14.43
2023-04-16T14:55:43.335Z,13.23
2023-04-16T14:58:10.838Z,12.75
2023-04-16T15:00:37.981Z,14.25
2023-04-16T15:03:05.854Z,14.60
2023-04-16T15:05:33.147Z,13.90
2023-04-16T15:08:00.672Z,13.83
2023-04-16T15:10:27.874Z,13.60
2023-04-16T15:12:54.774Z,14.70
2023-04-16T15:15:21.879Z,14.40
2023-04-16T15:17:50.958Z,14.03
2023-04-16T15:20:18.371Z,13.77
2023-04-16T15:22:45.476Z,15.37
2023-04-16T15:25:12.621Z,14.00
2023-04-16T15:27:39.609Z,14.83
2023-04-16T15:30:07.322Z,13.98
2023-04-16T15:32:34.365Z,13.93
2023-04-16T15:35:03.125Z,14.43
2023-04-16T15:37:30.048Z,13.23
2023-04-16T15:39:57.369Z,14.37
2023-04-16T15:42:24.718Z,15.97
2023-04-16T15:44:51.707Z,19.63
2023-04-16T15:47:18.768Z,15.50
2023-04-16T15:49:45.726Z,14.87
2023-04-16T15:52:12.980Z,13.60
2023-04-16T15:54:39.942Z,14.90
2023-04-16T15:57:06.842Z,13.67
2023-04-16T15:59:33.799Z,14.82
2023-04-16T16:02:01.257Z,13.30
2023-04-16T16:04:28.660Z,13.52
2023-04-16T16:06:56.290Z,13.07
2023-04-16T16:09:26.924Z,14.45
2023-04-16T16:11:54.557Z,15.38
2023-04-16T16:14:22.256Z,14.15
2023-04-16T16:16:49.536Z,13.68
2023-04-16T16:19:16.917Z,13.90
2023-04-16T16:21:43.943Z,12.25
2023-04-16T16:24:10.829Z,12.32
2023-04-16T16:26:37.833Z,11.98
2023-04-16T16:29:05.705Z,12.32
2023-04-16T16:31:32.947Z,13.10
2023-04-16T16:33:59.969Z,13.73
2023-04-16T16:36:27.437Z,13.77
2023-04-16T16:38:55.200Z,14.07
2023-04-16T16:41:22.498Z,13.48
2023-04-16T16:43:50.328Z,13.30
2023-04-16T16:46:17.274Z,14.10
2023-04-16T16:48:44.283Z,12.75
2023-04-16T16:51:11.397Z,13.90
2023-04-16T16:53:38.335Z,15.70
2023-04-16T16:56:05.824Z,12.07
2023-04-16T16:58:33.022Z,12.50
2023-04-16T17:01:00.195Z,12.98
2023-04-16T17:03:27.160Z,13.27
2023-04-16T17:05:54.242Z,12.80
2023-04-16T17:08:21.294Z,14.27
2023-04-16T17:10:48.257Z,12.37
2023-04-16T17:13:19.638Z,13.82
2023-04-16T17:15:47.073Z,14.13
2023-04-16T17:18:14.104Z,12.93
2023-04-16T17:20:41.473Z,15.17
2023-04-16T17:23:08.411Z,13.23
2023-04-16T17:25:35.720Z,14.97
2023-04-16T17:28:03.260Z,13.57
2023-04-16T17:30:31.602Z,14.17
2023-04-16T17:32:58.792Z,15.97
2023-04-16T17:35:25.833Z,16.40
2023-04-16T17:37:52.714Z,14.93
2023-04-16T17:40:19.716Z,14.90
2023-04-16T17:42:48.783Z,14.00
2023-04-16T17:45:16.069Z,18.03
2023-04-16T17:47:44.438Z,16.33
2023-04-16T17:50:11.970Z,13.57
2023-04-16T17:52:39.090Z,13.43
2023-04-16T17:55:07.656Z,15.93
2023-04-16T17:57:34.581Z,14.40
2023-04-16T18:00:01.575Z,17.03
2023-04-16T18:02:41.970Z,18.00
2023-04-16T18:05:09.595Z,22.90
2023-04-16T18:07:37.515Z,19.90
2023-04-16T18:10:05.088Z,17.37
2023-04-16T18:12:32.063Z,17.50
2023-04-16T18:14:58.960Z,20.33
2023-04-16T18:17:25.952Z,19.87
2023-04-16T18:19:52.937Z,26.87
2023-04-16T18:22:19.893Z,19.43
2023-04-16T18:24:47.019Z,26.50
2023-04-16T18:27:14.055Z,22.33
2023-04-16T18:29:43.756Z,20.27
2023-04-16T18:32:12.479Z,18.60
2023-04-16T18:34:39.711Z,18.27
2023-04-16T18:37:06.916Z,18.07
2023-04-16T18:39:34.072Z,17.87
2023-04-16T18:42:01.732Z,18.60
2023-04-16T18:44:28.684Z,17.33
2023-04-16T18:46:55.830Z,17.80
2023-04-16T18:49:22.909Z,17.07
2023-04-16T18:51:49.841Z,17.10
2023-04-16T18:54:16.770Z,17.70
2023-04-16T18:56:43.964Z,20.30
2023-04-16T18:59:11.478Z,17.83
2023-04-16T19:01:38.741Z,16.90
2023-04-16T19:04:06.073Z,17.20
2023-04-16T19:06:33.137Z,16.77
2023-04-16T19:09:00.165Z,17.80
2023-04-16T19:11:27.130Z,18.27
2023-04-16T19:13:54.076Z,17.93
2023-04-16T19:16:21.150Z,17.83
2023-04-16T19:18:48.035Z,19.13
2023-04-16T19:21:14.924Z,18.80
2023-04-16T19:23:41.895Z,20.30
2023-04-16T19:26:08.774Z,20.37
2023-04-16T19:28:35.835Z,19.27
2023-04-16T19:31:02.839Z,18.90
2023-04-16T19:33:29.863Z,20.73
2023-04-16T19:35:56.937Z,21.73
2023-04-16T19:38:23.897Z,20.93
2023-04-16T19:40:50.853Z,21.23
2023-04-16T19:43:17.713Z,21.03
2023-04-16T19:45:52.564Z,21.37
2023-04-16T19:48:22.782Z,20.97
2023-04-16T19:50:49.769Z,20.10
2023-04-16T19:53:17.368Z,20.77
2023-04-16T19:55:44.372Z,19.40
2023-04-16T19:58:11.397Z,19.30
2023-04-16T20:00:41.013Z,19.13
2023-04-16T20:03:08.450Z,19.37
2023-04-16T20:05:35.674Z,18.53
2023-04-16T20:08:02.792Z,18.90
2023-04-16T20:10:31.516Z,18.83
2023-04-16T20:12:58.776Z,20.10
2023-04-16T20:15:27.361Z,18.67
2023-04-16T20:17:56.104Z,19.50
2023-04-16T20:20:23.676Z,20.20
2023-04-16T20:22:50.936Z,19.30
2023-04-16T20:25:19.289Z,18.70
2023-04-16T20:27:46.660Z,17.83
2023-04-16T20:30:14.091Z,16.80
2023-04-16T20:32:41.232Z,16.57
2023-04-16T20:35:10.973Z,17.17
2023-04-16T20:37:38.627Z,15.80
2023-04-16T20:40:09.529Z,16.40
2023-04-16T20:42:36.558Z,14.80
2023-04-16T20:45:03.668Z,16.60
2023-04-16T20:47:30.583Z,14.90
2023-04-16T20:49:58.238Z,14.83
2023-04-16T20:52:25.466Z,13.70
2023-04-16T20:54:52.446Z,13.50
2023-04-16T20:57:19.507Z,15.33
2023-04-16T20:59:46.484Z,14.33
2023-04-16T21:02:14.146Z,17.00
2023-04-16T21:04:41.496Z,14.70
2023-04-16T21:07:08.701Z,14.70
2023-04-16T21:09:35.702Z,12.90
2023-04-16T21:12:03.000Z,16.53
2023-04-16T21:14:29.938Z,15.40
2023-04-16T21:16:56.870Z,14.60
2023-04-16T21:19:23.918Z,13.97
2023-04-16T21:21:51.343Z,15.27
2023-04-16T21:24:18.337Z,14.93
2023-04-16T21:26:45.344Z,18.17
2023-04-16T21:29:12.617Z,18.17
2023-04-16T21:31:39.823Z,21.40
2023-04-16T21:34:06.727Z,16.43
2023-04-16T21:36:34.132Z,16.73
2023-04-16T21:39:01.307Z,14.73
2023-04-16T21:41:28.326Z,14.97
2023-04-16T21:43:55.476Z,20.40
2023-04-16T21:46:23.174Z,15.37
2023-04-16T21:48:50.935Z,13.40
2023-04-16T21:51:18.245Z,15.03
2023-04-16T21:53:45.289Z,13.43
2023-04-16T21:56:12.281Z,15.13
2023-04-16T21:58:39.232Z,13.63
2023-04-16T22:01:07.716Z,13.30
2023-04-16T22:03:39.927Z,13.93
2023-04-16T22:06:07.582Z,14.60
2023-04-16T22:08:34.735Z,14.63
2023-04-16T22:11:02.891Z,15.30
2023-04-16T22:13:32.544Z,15.00
2023-04-16T22:16:03.452Z,14.97
2023-04-16T22:18:33.825Z,15.37
2023-04-16T22:21:01.447Z,16.17
2023-04-16T22:23:28.642Z,16.27
2023-04-16T22:25:56.761Z,16.57
2023-04-16T22:28:24.023Z,17.27
2023-04-16T22:30:51.268Z,18.60
2023-04-16T22:33:18.377Z,18.87
2023-04-16T22:35:46.144Z,19.30
2023-04-16T22:38:13.146Z,18.83
2023-04-16T22:40:40.083Z,20.70
2023-04-16T22:43:07.097Z,19.63
2023-04-16T22:45:34.686Z,19.93
2023-04-16T22:48:01.783Z,20.70
2023-04-16T22:50:31.177Z,21.17
2023-04-16T22:52:58.531Z,22.53
2023-04-16T22:55:25.530Z,22.77
2023-04-16T22:57:52.535Z,25.27
2023-04-16T23:00:19.593Z,25.00
2023-04-16T23:02:46.808Z,25.53
2023-04-16T23:05:13.816Z,24.53
2023-04-16T23:07:40.832Z,24.37
2023-04-16T23:10:08.828Z,26.57
2023-04-16T23:12:39.230Z,25.03
2023-04-16T23:15:07.024Z,25.53
2023-04-16T23:17:35.087Z,24.60
2023-04-16T23:20:03.078Z,25.80
2023-04-16T23:22:29.992Z,24.50
2023-04-16T23:24:56.918Z,25.77
2023-04-16T23:27:23.900Z,25.67
2023-04-16T23:29:50.813Z,24.70
2023-04-16T23:32:17.872Z,26.83
2023-04-16T23:34:45.317Z,25.33
2023-04-16T23:37:12.275Z,26.87
2023-04-16T23:39:39.233Z,27.07
2023-04-16T23:42:06.353Z,26.80
2023-04-16T23:44:33.428Z,25.97
2023-04-16T23:47:00.518Z,25.57
2023-04-16T23:49:27.536Z,27.63
2023-04-16T23:51:54.624Z,26.40
2023-04-16T23:54:21.782Z,25.03
2023-04-16T23:56:48.884Z,25.30
2023-04-16T23:59:16.822Z,26.43
